sensor_id;sensor_type;location;lat;lon;timestamp;P1;durP1;ratioP1;P2;durP2;ratioP2
36797;SDS011;22748;8.426;99.512;2022-09-19T00:00:02;17.60;;;13.07;;
36797;SDS011;22748;8.426;99.512;2022-09-19T00:02:32;32.00;;;17.90;;
36797;SDS011;22748;8.426;99.512;2022-09-19T00:05:04;32.35;;;21.88;;
36797;SDS011;22748;8.426;99.512;2022-09-19T00:07:42;31.30;;;22.42;;
36797;SDS011;22748;8.426;99.512;2022-09-19T00:10:15;26.60;;;17.80;;
36797;SDS011;22748;8.426;99.512;2022-09-19T00:12:46;27.55;;;18.98;;
36797;SDS011;22748;8.426;99.512;2022-09-19T00:17:50;30.52;;;17.27;;
36797;SDS011;22748;8.426;99.512;2022-09-19T00:22:49;27.85;;;14.18;;
36797;SDS011;22748;8.426;99.512;2022-09-19T00:25:33;24.10;;;13.70;;
36797;SDS011;22748;8.426;99.512;2022-09-19T00:28:03;21.77;;;13.95;;
36797;SDS011;22748;8.426;99.512;2022-09-19T00:30:36;18.55;;;13.10;;
36797;SDS011;22748;8.426;99.512;2022-09-19T00:33:07;20.02;;;11.93;;
36797;SDS011;22748;8.426;99.512;2022-09-19T00:35:38;20.60;;;10.98;;
36797;SDS011;22748;8.426;99.512;2022-09-19T00:38:09;17.10;;;10.30;;
36797;SDS011;22748;8.426;99.512;2022-09-19T00:40:38;16.17;;;10.10;;
36797;SDS011;22748;8.426;99.512;2022-09-19T00:43:14;36.90;;;13.32;;
36797;SDS011;22748;8.426;99.512;2022-09-19T00:45:48;42.03;;;19.13;;
36797;SDS011;22748;8.426;99.512;2022-09-19T00:48:18;40.85;;;13.73;;
36797;SDS011;22748;8.426;99.512;2022-09-19T00:50:52;22.13;;;11.93;;
36797;SDS011;22748;8.426;99.512;2022-09-19T00:53:26;25.48;;;11.77;;
36797;SDS011;22748;8.426;99.512;2022-09-19T00:55:58;19.38;;;12.70;;
36797;SDS011;22748;8.426;99.512;2022-09-19T00:58:29;20.40;;;12.20;;
36797;SDS011;22748;8.426;99.512;2022-09-19T01:01:02;23.40;;;15.10;;
36797;SDS011;22748;8.426;99.512;2022-09-19T01:03:33;21.25;;;14.43;;
36797;SDS011;22748;8.426;99.512;2022-09-19T01:06:05;19.80;;;12.80;;
36797;SDS011;22748;8.426;99.512;2022-09-19T01:09:02;19.02;;;11.70;;
36797;SDS011;22748;8.426;99.512;2022-09-19T01:14:41;26.45;;;14.13;;
36797;SDS011;22748;8.426;99.512;2022-09-19T01:17:23;17.90;;;10.40;;
36797;SDS011;22748;8.426;99.512;2022-09-19T01:20:06;18.88;;;9.57;;
36797;SDS011;22748;8.426;99.512;2022-09-19T01:22:55;23.30;;;10.85;;
36797;SDS011;22748;8.426;99.512;2022-09-19T01:25:46;22.40;;;10.60;;
36797;SDS011;22748;8.426;99.512;2022-09-19T01:28:28;13.98;;;8.65;;
36797;SDS011;22748;8.426;99.512;2022-09-19T01:31:03;14.90;;;8.77;;
36797;SDS011;22748;8.426;99.512;2022-09-19T01:33:50;15.02;;;8.50;;
36797;SDS011;22748;8.426;99.512;2022-09-19T01:36:29;18.98;;;8.77;;
36797;SDS011;22748;8.426;99.512;2022-09-19T01:39:05;16.52;;;8.50;;
36797;SDS011;22748;8.426;99.512;2022-09-19T01:41:37;17.90;;;9.15;;
36797;SDS011;22748;8.426;99.512;2022-09-19T01:44:17;20.85;;;9.52;;
36797;SDS011;22748;8.426;99.512;2022-09-19T01:46:50;17.92;;;8.68;;
36797;SDS011;22748;8.426;99.512;2022-09-19T01:49:33;17.25;;;8.68;;
36797;SDS011;22748;8.426;99.512;2022-09-19T01:52:15;17.08;;;8.38;;
36797;SDS011;22748;8.426;99.512;2022-09-19T01:54:58;16.08;;;6.95;;
36797;SDS011;22748;8.426;99.512;2022-09-19T01:57:39;17.70;;;8.15;;
36797;SDS011;22748;8.426;99.512;2022-09-19T02:00:18;20.35;;;6.78;;
36797;SDS011;22748;8.426;99.512;2022-09-19T02:02:54;16.02;;;6.30;;
36797;SDS011;22748;8.426;99.512;2022-09-19T02:05:36;12.00;;;5.88;;
36797;SDS011;22748;8.426;99.512;2022-09-19T02:08:17;12.32;;;5.45;;
36797;SDS011;22748;8.426;99.512;2022-09-19T02:10:51;11.50;;;5.05;;
36797;SDS011;22748;8.426;99.512;2022-09-19T02:13:26;13.68;;;5.47;;
36797;SDS011;22748;8.426;99.512;2022-09-19T02:16:03;13.18;;;5.13;;
36797;SDS011;22748;8.426;99.512;2022-09-19T02:18:38;13.48;;;6.97;;
36797;SDS011;22748;8.426;99.512;2022-09-19T02:21:18;10.43;;;4.60;;
36797;SDS011;22748;8.426;99.512;2022-09-19T02:23:55;9.95;;;4.85;;
36797;SDS011;22748;8.426;99.512;2022-09-19T02:26:33;12.73;;;4.78;;
36797;SDS011;22748;8.426;99.512;2022-09-19T02:29:09;13.05;;;4.30;;
36797;SDS011;22748;8.426;99.512;2022-09-19T02:31:50;9.52;;;4.50;;
36797;SDS011;22748;8.426;99.512;2022-09-19T02:34:22;11.38;;;4.78;;
36797;SDS011;22748;8.426;99.512;2022-09-19T02:36:53;15.38;;;5.53;;
36797;SDS011;22748;8.426;99.512;2022-09-19T02:39:30;12.77;;;4.97;;
36797;SDS011;22748;8.426;99.512;2022-09-19T02:42:06;35.03;;;7.45;;
36797;SDS011;22748;8.426;99.512;2022-09-19T02:44:47;11.68;;;4.45;;
36797;SDS011;22748;8.426;99.512;2022-09-19T02:47:38;12.80;;;4.53;;
36797;SDS011;22748;8.426;99.512;2022-09-19T02:50:15;14.43;;;8.10;;
36797;SDS011;22748;8.426;99.512;2022-09-19T02:52:50;12.90;;;6.47;;
36797;SDS011;22748;8.426;99.512;2022-09-19T02:55:25;15.23;;;8.65;;
36797;SDS011;22748;8.426;99.512;2022-09-19T02:57:57;12.63;;;5.93;;
36797;SDS011;22748;8.426;99.512;2022-09-19T03:00:29;11.02;;;5.40;;
36797;SDS011;22748;8.426;99.512;2022-09-19T03:03:03;11.88;;;4.15;;
36797;SDS011;22748;8.426;99.512;2022-09-19T03:05:57;12.23;;;5.65;;
36797;SDS011;22748;8.426;99.512;2022-09-19T03:08:28;15.88;;;6.90;;
36797;SDS011;22748;8.426;99.512;2022-09-19T03:11:03;16.95;;;6.72;;
36797;SDS011;22748;8.426;99.512;2022-09-19T03:13:37;13.63;;;6.20;;
36797;SDS011;22748;8.426;99.512;2022-09-19T03:16:08;10.65;;;6.00;;
36797;SDS011;22748;8.426;99.512;2022-09-19T03:18:43;19.45;;;9.98;;
36797;SDS011;22748;8.426;99.512;2022-09-19T03:21:22;14.18;;;6.80;;
36797;SDS011;22748;8.426;99.512;2022-09-19T03:23:55;12.43;;;6.40;;
36797;SDS011;22748;8.426;99.512;2022-09-19T03:26:28;13.20;;;6.07;;
36797;SDS011;22748;8.426;99.512;2022-09-19T03:29:02;11.60;;;5.28;;
36797;SDS011;22748;8.426;99.512;2022-09-19T03:31:34;11.55;;;6.28;;
36797;SDS011;22748;8.426;99.512;2022-09-19T03:34:06;11.43;;;5.22;;
36797;SDS011;22748;8.426;99.512;2022-09-19T03:36:38;12.52;;;5.30;;
36797;SDS011;22748;8.426;99.512;2022-09-19T03:39:12;12.90;;;6.03;;
36797;SDS011;22748;8.426;99.512;2022-09-19T03:41:43;10.93;;;5.68;;
36797;SDS011;22748;8.426;99.512;2022-09-19T03:44:12;12.13;;;5.88;;
36797;SDS011;22748;8.426;99.512;2022-09-19T03:46:43;12.57;;;6.20;;
36797;SDS011;22748;8.426;99.512;2022-09-19T03:49:15;12.40;;;8.73;;
36797;SDS011;22748;8.426;99.512;2022-09-19T03:51:47;13.10;;;6.60;;
36797;SDS011;22748;8.426;99.512;2022-09-19T03:54:16;12.70;;;5.63;;
36797;SDS011;22748;8.426;99.512;2022-09-19T03:56:45;13.20;;;5.95;;
36797;SDS011;22748;8.426;99.512;2022-09-19T03:59:15;9.70;;;5.20;;
36797;SDS011;22748;8.426;99.512;2022-09-19T04:01:45;11.13;;;5.27;;
36797;SDS011;22748;8.426;99.512;2022-09-19T04:04:16;10.10;;;4.90;;
36797;SDS011;22748;8.426;99.512;2022-09-19T04:06:47;10.75;;;4.85;;
36797;SDS011;22748;8.426;99.512;2022-09-19T04:09:16;13.00;;;5.40;;
36797;SDS011;22748;8.426;99.512;2022-09-19T04:11:45;13.80;;;5.40;;
36797;SDS011;22748;8.426;99.512;2022-09-19T04:14:15;11.23;;;5.28;;
36797;SDS011;22748;8.426;99.512;2022-09-19T04:16:44;12.82;;;5.90;;
36797;SDS011;22748;8.426;99.512;2022-09-19T04:19:14;11.85;;;5.30;;
36797;SDS011;22748;8.426;99.512;2022-09-19T04:24:13;14.95;;;5.93;;
36797;SDS011;22748;8.426;99.512;2022-09-19T04:26:43;12.20;;;6.45;;
36797;SDS011;22748;8.426;99.512;2022-09-19T04:29:13;12.20;;;5.45;;
36797;SDS011;22748;8.426;99.512;2022-09-19T04:31:46;12.00;;;5.50;;
36797;SDS011;22748;8.426;99.512;2022-09-19T04:34:17;10.02;;;5.63;;
36797;SDS011;22748;8.426;99.512;2022-09-19T04:36:47;14.30;;;6.90;;
36797;SDS011;22748;8.426;99.512;2022-09-19T04:39:28;15.52;;;11.90;;
36797;SDS011;22748;8.426;99.512;2022-09-19T04:42:01;14.18;;;6.70;;
36797;SDS011;22748;8.426;99.512;2022-09-19T04:44:38;16.08;;;8.27;;
36797;SDS011;22748;8.426;99.512;2022-09-19T04:47:25;19.33;;;11.05;;
36797;SDS011;22748;8.426;99.512;2022-09-19T04:50:00;19.65;;;11.80;;
36797;SDS011;22748;8.426;99.512;2022-09-19T04:52:40;13.98;;;7.00;;
36797;SDS011;22748;8.426;99.512;2022-09-19T04:55:18;26.98;;;11.02;;
36797;SDS011;22748;8.426;99.512;2022-09-19T04:57:56;18.58;;;10.30;;
36797;SDS011;22748;8.426;99.512;2022-09-19T05:03:30;11.15;;;5.70;;
36797;SDS011;22748;8.426;99.512;2022-09-19T05:06:03;18.70;;;7.38;;
36797;SDS011;22748;8.426;99.512;2022-09-19T05:08:33;13.38;;;7.13;;
36797;SDS011;22748;8.426;99.512;2022-09-19T05:11:04;11.37;;;4.77;;
36797;SDS011;22748;8.426;99.512;2022-09-19T05:13:35;13.13;;;7.80;;
36797;SDS011;22748;8.426;99.512;2022-09-19T05:16:08;17.42;;;6.22;;
36797;SDS011;22748;8.426;99.512;2022-09-19T05:18:41;15.50;;;5.80;;
36797;SDS011;22748;8.426;99.512;2022-09-19T05:21:14;9.43;;;4.45;;
36797;SDS011;22748;8.426;99.512;2022-09-19T05:23:46;10.15;;;4.47;;
36797;SDS011;22748;8.426;99.512;2022-09-19T05:26:15;9.07;;;4.53;;
36797;SDS011;22748;8.426;99.512;2022-09-19T05:28:45;11.25;;;4.47;;
36797;SDS011;22748;8.426;99.512;2022-09-19T05:31:16;10.10;;;4.55;;
36797;SDS011;22748;8.426;99.512;2022-09-19T05:33:46;15.32;;;5.22;;
36797;SDS011;22748;8.426;99.512;2022-09-19T05:36:18;9.20;;;3.97;;
36797;SDS011;22748;8.426;99.512;2022-09-19T05:38:48;17.88;;;6.05;;
36797;SDS011;22748;8.426;99.512;2022-09-19T05:41:19;10.13;;;4.10;;
36797;SDS011;22748;8.426;99.512;2022-09-19T05:43:51;17.08;;;5.70;;
36797;SDS011;22748;8.426;99.512;2022-09-19T05:46:22;10.95;;;4.40;;
36797;SDS011;22748;8.426;99.512;2022-09-19T05:48:52;7.70;;;4.43;;
36797;SDS011;22748;8.426;99.512;2022-09-19T05:51:24;11.48;;;3.90;;
36797;SDS011;22748;8.426;99.512;2022-09-19T05:53:58;9.77;;;4.78;;
36797;SDS011;22748;8.426;99.512;2022-09-19T05:56:27;10.63;;;4.93;;
36797;SDS011;22748;8.426;99.512;2022-09-19T05:58:58;9.13;;;5.50;;
36797;SDS011;22748;8.426;99.512;2022-09-19T06:01:27;10.63;;;5.20;;
36797;SDS011;22748;8.426;99.512;2022-09-19T06:03:57;14.43;;;5.05;;
36797;SDS011;22748;8.426;99.512;2022-09-19T06:06:29;10.63;;;5.75;;
36797;SDS011;22748;8.426;99.512;2022-09-19T06:09:00;8.27;;;4.20;;
36797;SDS011;22748;8.426;99.512;2022-09-19T06:14:00;11.70;;;5.30;;
36797;SDS011;22748;8.426;99.512;2022-09-19T06:16:43;7.03;;;3.33;;
36797;SDS011;22748;8.426;99.512;2022-09-19T06:19:13;18.57;;;13.70;;
36797;SDS011;22748;8.426;99.512;2022-09-19T06:21:44;25.90;;;18.30;;
36797;SDS011;22748;8.426;99.512;2022-09-19T06:26:46;14.48;;;8.43;;
36797;SDS011;22748;8.426;99.512;2022-09-19T06:29:15;12.73;;;7.13;;
36797;SDS011;22748;8.426;99.512;2022-09-19T06:31:45;11.05;;;7.13;;
36797;SDS011;22748;8.426;99.512;2022-09-19T06:34:16;10.45;;;6.70;;
36797;SDS011;22748;8.426;99.512;2022-09-19T06:39:19;5.43;;;3.22;;
36797;SDS011;22748;8.426;99.512;2022-09-19T06:41:50;8.00;;;4.60;;
36797;SDS011;22748;8.426;99.512;2022-09-19T06:44:20;5.32;;;4.07;;
36797;SDS011;22748;8.426;99.512;2022-09-19T06:46:50;11.43;;;5.93;;
36797;SDS011;22748;8.426;99.512;2022-09-19T06:49:21;7.38;;;3.47;;
36797;SDS011;22748;8.426;99.512;2022-09-19T06:51:55;7.50;;;3.15;;
36797;SDS011;22748;8.426;99.512;2022-09-19T06:54:26;11.98;;;4.47;;
36797;SDS011;22748;8.426;99.512;2022-09-19T06:59:25;8.23;;;3.95;;
36797;SDS011;22748;8.426;99.512;2022-09-19T07:01:55;8.85;;;5.20;;
36797;SDS011;22748;8.426;99.512;2022-09-19T07:06:58;9.30;;;5.68;;
36797;SDS011;22748;8.426;99.512;2022-09-19T07:09:32;6.03;;;3.53;;
36797;SDS011;22748;8.426;99.512;2022-09-19T07:12:03;9.32;;;4.35;;
36797;SDS011;22748;8.426;99.512;2022-09-19T07:14:33;8.77;;;4.00;;
36797;SDS011;22748;8.426;99.512;2022-09-19T07:17:04;9.25;;;3.60;;
36797;SDS011;22748;8.426;99.512;2022-09-19T07:19:35;11.20;;;3.67;;
36797;SDS011;22748;8.426;99.512;2022-09-19T07:22:07;7.28;;;3.45;;
36797;SDS011;22748;8.426;99.512;2022-09-19T07:24:36;9.82;;;3.70;;
36797;SDS011;22748;8.426;99.512;2022-09-19T07:27:05;8.77;;;4.00;;
36797;SDS011;22748;8.426;99.512;2022-09-19T07:29:35;9.75;;;4.13;;
36797;SDS011;22748;8.426;99.512;2022-09-19T07:32:06;9.60;;;4.60;;
36797;SDS011;22748;8.426;99.512;2022-09-19T07:34:36;9.38;;;5.75;;
36797;SDS011;22748;8.426;99.512;2022-09-19T07:37:07;7.75;;;3.88;;
36797;SDS011;22748;8.426;99.512;2022-09-19T07:39:40;7.22;;;3.70;;
36797;SDS011;22748;8.426;99.512;2022-09-19T07:42:09;9.68;;;4.65;;
36797;SDS011;22748;8.426;99.512;2022-09-19T07:44:39;12.10;;;5.13;;
36797;SDS011;22748;8.426;99.512;2022-09-19T07:47:16;11.05;;;5.70;;
36797;SDS011;22748;8.426;99.512;2022-09-19T07:49:55;8.25;;;4.45;;
36797;SDS011;22748;8.426;99.512;2022-09-19T07:52:27;7.50;;;3.88;;
36797;SDS011;22748;8.426;99.512;2022-09-19T07:54:59;6.78;;;3.58;;
36797;SDS011;22748;8.426;99.512;2022-09-19T07:59:56;6.85;;;2.78;;
36797;SDS011;22748;8.426;99.512;2022-09-19T08:02:26;7.75;;;2.40;;
36797;SDS011;22748;8.426;99.512;2022-09-19T08:04:57;7.03;;;2.45;;
36797;SDS011;22748;8.426;99.512;2022-09-19T08:09:56;5.55;;;2.80;;
36797;SDS011;22748;8.426;99.512;2022-09-19T08:12:27;7.30;;;4.03;;
36797;SDS011;22748;8.426;99.512;2022-09-19T08:14:56;8.95;;;4.20;;
36797;SDS011;22748;8.426;99.512;2022-09-19T08:17:27;4.95;;;2.30;;
36797;SDS011;22748;8.426;99.512;2022-09-19T08:19:56;7.68;;;3.50;;
36797;SDS011;22748;8.426;99.512;2022-09-19T08:22:28;9.48;;;4.80;;
36797;SDS011;22748;8.426;99.512;2022-09-19T08:24:59;6.07;;;3.15;;
36797;SDS011;22748;8.426;99.512;2022-09-19T08:27:28;7.95;;;2.67;;
36797;SDS011;22748;8.426;99.512;2022-09-19T08:29:57;8.77;;;3.00;;
36797;SDS011;22748;8.426;99.512;2022-09-19T08:32:31;8.10;;;3.05;;
36797;SDS011;22748;8.426;99.512;2022-09-19T08:35:02;9.88;;;3.63;;
36797;SDS011;22748;8.426;99.512;2022-09-19T08:37:34;6.05;;;2.45;;
36797;SDS011;22748;8.426;99.512;2022-09-19T08:40:03;9.40;;;2.08;;
36797;SDS011;22748;8.426;99.512;2022-09-19T08:42:51;12.70;;;2.92;;
36797;SDS011;22748;8.426;99.512;2022-09-19T08:45:38;6.32;;;2.15;;
36797;SDS011;22748;8.426;99.512;2022-09-19T08:48:24;11.60;;;4.40;;
36797;SDS011;22748;8.426;99.512;2022-09-19T08:51:06;7.05;;;3.80;;
36797;SDS011;22748;8.426;99.512;2022-09-19T08:53:42;7.15;;;4.05;;
36797;SDS011;22748;8.426;99.512;2022-09-19T08:56:16;12.63;;;4.40;;
36797;SDS011;22748;8.426;99.512;2022-09-19T08:58:47;8.15;;;4.75;;
36797;SDS011;22748;8.426;99.512;2022-09-19T09:01:20;8.63;;;3.85;;
36797;SDS011;22748;8.426;99.512;2022-09-19T09:03:54;4.50;;;3.40;;
36797;SDS011;22748;8.426;99.512;2022-09-19T09:06:36;4.57;;;3.08;;
36797;SDS011;22748;8.426;99.512;2022-09-19T09:09:20;4.47;;;3.22;;
36797;SDS011;22748;8.426;99.512;2022-09-19T09:12:01;9.95;;;6.00;;
36797;SDS011;22748;8.426;99.512;2022-09-19T09:14:43;8.57;;;4.15;;
36797;SDS011;22748;8.426;99.512;2022-09-19T09:17:28;16.35;;;11.75;;
36797;SDS011;22748;8.426;99.512;2022-09-19T09:20:07;15.38;;;10.73;;
36797;SDS011;22748;8.426;99.512;2022-09-19T09:22:47;11.23;;;7.30;;
36797;SDS011;22748;8.426;99.512;2022-09-19T09:25:24;9.18;;;5.95;;
36797;SDS011;22748;8.426;99.512;2022-09-19T09:28:00;9.60;;;5.20;;
36797;SDS011;22748;8.426;99.512;2022-09-19T09:30:37;9.15;;;4.75;;
36797;SDS011;22748;8.426;99.512;2022-09-19T09:33:14;8.48;;;4.07;;
36797;SDS011;22748;8.426;99.512;2022-09-19T09:35:52;6.35;;;3.78;;
36797;SDS011;22748;8.426;99.512;2022-09-19T09:38:31;5.75;;;3.83;;
36797;SDS011;22748;8.426;99.512;2022-09-19T09:41:06;5.05;;;3.30;;
36797;SDS011;22748;8.426;99.512;2022-09-19T09:44:00;4.65;;;3.30;;
36797;SDS011;22748;8.426;99.512;2022-09-19T09:46:47;5.47;;;3.60;;
36797;SDS011;22748;8.426;99.512;2022-09-19T09:49:25;4.10;;;3.70;;
36797;SDS011;22748;8.426;99.512;2022-09-19T09:52:03;4.60;;;3.13;;
36797;SDS011;22748;8.426;99.512;2022-09-19T09:54:44;4.30;;;3.00;;
36797;SDS011;22748;8.426;99.512;2022-09-19T09:57:41;5.63;;;3.35;;
36797;SDS011;22748;8.426;99.512;2022-09-19T10:00:15;5.20;;;2.75;;
36797;SDS011;22748;8.426;99.512;2022-09-19T10:03:00;4.93;;;2.55;;
36797;SDS011;22748;8.426;99.512;2022-09-19T10:05:56;6.47;;;2.58;;
36797;SDS011;22748;8.426;99.512;2022-09-19T10:08:30;5.90;;;2.10;;
36797;SDS011;22748;8.426;99.512;2022-09-19T10:11:09;8.60;;;2.75;;
36797;SDS011;22748;8.426;99.512;2022-09-19T10:13:45;10.60;;;6.95;;
36797;SDS011;22748;8.426;99.512;2022-09-19T10:16:28;6.88;;;3.58;;
36797;SDS011;22748;8.426;99.512;2022-09-19T10:19:02;16.05;;;9.18;;
36797;SDS011;22748;8.426;99.512;2022-09-19T10:21:42;13.02;;;6.57;;
36797;SDS011;22748;8.426;99.512;2022-09-19T10:27:15;9.30;;;5.50;;
36797;SDS011;22748;8.426;99.512;2022-09-19T10:29:52;10.23;;;6.00;;
36797;SDS011;22748;8.426;99.512;2022-09-19T10:32:26;7.88;;;4.95;;
36797;SDS011;22748;8.426;99.512;2022-09-19T10:35:00;9.02;;;5.20;;
36797;SDS011;22748;8.426;99.512;2022-09-19T10:37:43;13.00;;;6.95;;
36797;SDS011;22748;8.426;99.512;2022-09-19T10:40:14;21.30;;;11.38;;
36797;SDS011;22748;8.426;99.512;2022-09-19T10:42:47;10.68;;;7.35;;
36797;SDS011;22748;8.426;99.512;2022-09-19T10:45:19;16.40;;;9.70;;
36797;SDS011;22748;8.426;99.512;2022-09-19T10:47:54;15.25;;;10.52;;
36797;SDS011;22748;8.426;99.512;2022-09-19T10:50:27;17.17;;;11.88;;
36797;SDS011;22748;8.426;99.512;2022-09-19T10:53:01;17.95;;;12.13;;
36797;SDS011;22748;8.426;99.512;2022-09-19T10:55:34;14.05;;;10.13;;
36797;SDS011;22748;8.426;99.512;2022-09-19T10:58:06;11.10;;;10.07;;
36797;SDS011;22748;8.426;99.512;2022-09-19T11:00:48;14.18;;;10.63;;
36797;SDS011;22748;8.426;99.512;2022-09-19T11:03:22;14.55;;;9.32;;
36797;SDS011;22748;8.426;99.512;2022-09-19T11:06:04;11.48;;;9.40;;
36797;SDS011;22748;8.426;99.512;2022-09-19T11:08:39;11.60;;;8.40;;
36797;SDS011;22748;8.426;99.512;2022-09-19T11:20:12;19.08;;;15.40;;
36797;SDS011;22748;8.426;99.512;2022-09-19T11:23:01;17.80;;;14.15;;
36797;SDS011;22748;8.426;99.512;2022-09-19T11:25:45;22.17;;;18.40;;
36797;SDS011;22748;8.426;99.512;2022-09-19T11:28:27;28.92;;;24.55;;
36797;SDS011;22748;8.426;99.512;2022-09-19T11:31:13;24.25;;;21.63;;
36797;SDS011;22748;8.426;99.512;2022-09-19T11:33:54;23.27;;;19.50;;
36797;SDS011;22748;8.426;99.512;2022-09-19T11:36:38;21.50;;;16.25;;
36797;SDS011;22748;8.426;99.512;2022-09-19T11:39:21;19.10;;;15.45;;
36797;SDS011;22748;8.426;99.512;2022-09-19T11:42:05;15.23;;;12.70;;
36797;SDS011;22748;8.426;99.512;2022-09-19T11:44:48;14.75;;;10.63;;
36797;SDS011;22748;8.426;99.512;2022-09-19T11:47:34;11.20;;;10.18;;
36797;SDS011;22748;8.426;99.512;2022-09-19T11:50:32;11.63;;;9.27;;
36797;SDS011;22748;8.426;99.512;2022-09-19T11:53:22;13.55;;;9.35;;
36797;SDS011;22748;8.426;99.512;2022-09-19T11:56:16;8.52;;;7.50;;
36797;SDS011;22748;8.426;99.512;2022-09-19T11:59:04;10.98;;;7.10;;
36797;SDS011;22748;8.426;99.512;2022-09-19T12:01:45;10.48;;;7.57;;
36797;SDS011;22748;8.426;99.512;2022-09-19T12:04:26;13.52;;;7.65;;
36797;SDS011;22748;8.426;99.512;2022-09-19T12:07:14;21.52;;;8.05;;
36797;SDS011;22748;8.426;99.512;2022-09-19T12:09:59;14.50;;;9.32;;
36797;SDS011;22748;8.426;99.512;2022-09-19T12:12:39;14.82;;;8.65;;
36797;SDS011;22748;8.426;99.512;2022-09-19T12:15:16;15.48;;;8.70;;
36797;SDS011;22748;8.426;99.512;2022-09-19T12:17:51;12.93;;;8.07;;
36797;SDS011;22748;8.426;99.512;2022-09-19T12:20:27;9.32;;;8.10;;
36797;SDS011;22748;8.426;99.512;2022-09-19T12:23:03;10.30;;;8.57;;
36797;SDS011;22748;8.426;99.512;2022-09-19T12:25:53;11.85;;;9.55;;
36797;SDS011;22748;8.426;99.512;2022-09-19T12:28:25;11.38;;;8.55;;
36797;SDS011;22748;8.426;99.512;2022-09-19T12:31:03;8.95;;;8.00;;
36797;SDS011;22748;8.426;99.512;2022-09-19T12:33:38;10.18;;;7.88;;
36797;SDS011;22748;8.426;99.512;2022-09-19T12:36:17;11.05;;;8.18;;
36797;SDS011;22748;8.426;99.512;2022-09-19T12:38:54;13.80;;;8.43;;
36797;SDS011;22748;8.426;99.512;2022-09-19T12:41:32;12.25;;;9.38;;
36797;SDS011;22748;8.426;99.512;2022-09-19T12:44:12;15.20;;;11.48;;
36797;SDS011;22748;8.426;99.512;2022-09-19T12:46:49;14.30;;;11.75;;
36797;SDS011;22748;8.426;99.512;2022-09-19T12:49:26;12.88;;;11.15;;
36797;SDS011;22748;8.426;99.512;2022-09-19T12:52:04;15.40;;;11.95;;
36797;SDS011;22748;8.426;99.512;2022-09-19T12:54:43;18.85;;;11.93;;
36797;SDS011;22748;8.426;99.512;2022-09-19T12:57:21;16.02;;;11.88;;
36797;SDS011;22748;8.426;99.512;2022-09-19T13:00:02;15.95;;;11.45;;
36797;SDS011;22748;8.426;99.512;2022-09-19T13:02:32;15.40;;;12.25;;
36797;SDS011;22748;8.426;99.512;2022-09-19T13:05:08;16.52;;;12.82;;
36797;SDS011;22748;8.426;99.512;2022-09-19T13:07:45;16.00;;;12.60;;
36797;SDS011;22748;8.426;99.512;2022-09-19T13:10:22;22.52;;;14.68;;
36797;SDS011;22748;8.426;99.512;2022-09-19T13:12:56;31.85;;;20.10;;
36797;SDS011;22748;8.426;99.512;2022-09-19T13:15:35;29.83;;;18.58;;
36797;SDS011;22748;8.426;99.512;2022-09-19T13:18:10;28.85;;;19.40;;
36797;SDS011;22748;8.426;99.512;2022-09-19T13:20:55;21.45;;;16.40;;
36797;SDS011;22748;8.426;99.512;2022-09-19T13:23:37;21.77;;;15.85;;
36797;SDS011;22748;8.426;99.512;2022-09-19T13:28:58;18.30;;;13.35;;
36797;SDS011;22748;8.426;99.512;2022-09-19T13:31:33;19.33;;;12.52;;
36797;SDS011;22748;8.426;99.512;2022-09-19T13:40:24;13.98;;;9.35;;
36797;SDS011;22748;8.426;99.512;2022-09-19T13:43:13;10.30;;;8.27;;
36797;SDS011;22748;8.426;99.512;2022-09-19T13:46:04;11.52;;;8.20;;
36797;SDS011;22748;8.426;99.512;2022-09-19T13:48:42;9.50;;;7.80;;
36797;SDS011;22748;8.426;99.512;2022-09-19T13:57:03;10.18;;;8.13;;
36797;SDS011;22748;8.426;99.512;2022-09-19T13:59:40;13.13;;;8.27;;
36797;SDS011;22748;8.426;99.512;2022-09-19T14:02:23;11.60;;;8.52;;
36797;SDS011;22748;8.426;99.512;2022-09-19T14:05:01;13.13;;;7.93;;
36797;SDS011;22748;8.426;99.512;2022-09-19T14:07:37;11.80;;;7.95;;
36797;SDS011;22748;8.426;99.512;2022-09-19T14:10:17;10.82;;;7.78;;
36797;SDS011;22748;8.426;99.512;2022-09-19T14:13:00;10.90;;;8.30;;
36797;SDS011;22748;8.426;99.512;2022-09-19T14:24:33;10.63;;;8.38;;
36797;SDS011;22748;8.426;99.512;2022-09-19T14:30:17;8.95;;;7.80;;
36797;SDS011;22748;8.426;99.512;2022-09-19T14:33:05;11.02;;;8.20;;
36797;SDS011;22748;8.426;99.512;2022-09-19T14:35:56;12.20;;;8.23;;
36797;SDS011;22748;8.426;99.512;2022-09-19T14:38:39;11.73;;;7.93;;
36797;SDS011;22748;8.426;99.512;2022-09-19T14:44:10;10.98;;;6.70;;
36797;SDS011;22748;8.426;99.512;2022-09-19T14:47:00;12.63;;;6.47;;
36797;SDS011;22748;8.426;99.512;2022-09-19T14:49:39;11.93;;;6.65;;
36797;SDS011;22748;8.426;99.512;2022-09-19T14:52:17;8.80;;;6.30;;
36797;SDS011;22748;8.426;99.512;2022-09-19T14:54:53;9.13;;;6.63;;
36797;SDS011;22748;8.426;99.512;2022-09-19T14:57:28;8.77;;;6.05;;
36797;SDS011;22748;8.426;99.512;2022-09-19T15:00:12;9.45;;;6.78;;
36797;SDS011;22748;8.426;99.512;2022-09-19T15:02:48;10.38;;;6.75;;
36797;SDS011;22748;8.426;99.512;2022-09-19T15:05:22;9.83;;;6.77;;
36797;SDS011;22748;8.426;99.512;2022-09-19T15:07:55;12.45;;;6.57;;
36797;SDS011;22748;8.426;99.512;2022-09-19T15:10:31;7.97;;;6.32;;
36797;SDS011;22748;8.426;99.512;2022-09-19T15:13:17;8.02;;;6.07;;
36797;SDS011;22748;8.426;99.512;2022-09-19T15:15:50;8.65;;;6.22;;
36797;SDS011;22748;8.426;99.512;2022-09-19T15:18:28;9.80;;;6.00;;
36797;SDS011;22748;8.426;99.512;2022-09-19T15:21:05;9.23;;;6.35;;
36797;SDS011;22748;8.426;99.512;2022-09-19T15:23:41;9.07;;;5.90;;
36797;SDS011;22748;8.426;99.512;2022-09-19T15:26:14;10.07;;;6.20;;
36797;SDS011;22748;8.426;99.512;2022-09-19T15:28:56;9.55;;;5.60;;
36797;SDS011;22748;8.426;99.512;2022-09-19T15:31:29;10.57;;;6.50;;
36797;SDS011;22748;8.426;99.512;2022-09-19T15:34:02;12.43;;;5.65;;
36797;SDS011;22748;8.426;99.512;2022-09-19T15:36:42;9.85;;;6.10;;
36797;SDS011;22748;8.426;99.512;2022-09-19T15:39:13;6.63;;;5.40;;
36797;SDS011;22748;8.426;99.512;2022-09-19T15:41:45;8.07;;;6.32;;
36797;SDS011;22748;8.426;99.512;2022-09-19T15:46:53;9.70;;;6.03;;
36797;SDS011;22748;8.426;99.512;2022-09-19T15:49:34;8.45;;;6.22;;
36797;SDS011;22748;8.426;99.512;2022-09-19T15:52:09;7.32;;;5.53;;
36797;SDS011;22748;8.426;99.512;2022-09-19T15:54:47;9.90;;;6.00;;
36797;SDS011;22748;8.426;99.512;2022-09-19T15:57:21;8.20;;;5.43;;
36797;SDS011;22748;8.426;99.512;2022-09-19T15:59:59;8.50;;;5.47;;
36797;SDS011;22748;8.426;99.512;2022-09-19T16:02:34;7.10;;;4.97;;
36797;SDS011;22748;8.426;99.512;2022-09-19T16:05:14;6.05;;;5.18;;
36797;SDS011;22748;8.426;99.512;2022-09-19T16:07:51;5.95;;;4.95;;
36797;SDS011;22748;8.426;99.512;2022-09-19T16:10:36;7.18;;;5.57;;
36797;SDS011;22748;8.426;99.512;2022-09-19T16:18:56;7.57;;;5.03;;
36797;SDS011;22748;8.426;99.512;2022-09-19T16:21:29;8.18;;;5.20;;
36797;SDS011;22748;8.426;99.512;2022-09-19T16:24:09;5.68;;;4.70;;
36797;SDS011;22748;8.426;99.512;2022-09-19T16:26:44;6.65;;;4.72;;
36797;SDS011;22748;8.426;99.512;2022-09-19T16:29:20;7.20;;;4.68;;
36797;SDS011;22748;8.426;99.512;2022-09-19T16:31:51;8.90;;;5.32;;
36797;SDS011;22748;8.426;99.512;2022-09-19T16:34:26;10.95;;;5.10;;
36797;SDS011;22748;8.426;99.512;2022-09-19T16:37:02;8.55;;;5.53;;
36797;SDS011;22748;8.426;99.512;2022-09-19T16:39:42;5.65;;;4.57;;
36797;SDS011;22748;8.426;99.512;2022-09-19T16:42:24;6.43;;;5.00;;
36797;SDS011;22748;8.426;99.512;2022-09-19T16:45:07;7.90;;;4.95;;
36797;SDS011;22748;8.426;99.512;2022-09-19T16:47:45;6.45;;;4.97;;